Guysie, Georgia
Current Conditions -  °F | °C
As of 9:53 AM on Wednesday 22 Oct 2014 (Local Time) from KAMG Reporting Station
Clear Clear  
Wind Chill: 60°   Ceiling: Unl
Heat Index: 60°   Visibility: 10mi
Dew Point: 47°   Wind: 8mph
Humidity: 62%   Direction: 50°NE
Pressure: 30.07"   Gusts: NA
Location:  31.5537°N, 82.4528°W
Report Text: KAMG 221353Z AUTO 05007KT 010V100 10SM CLR 16/08 A3007 RMK AO2 SLP182 T01560083
Loading
Personal Weather Stations






























Interactive Weather Map
Tropical Storm Tracking
New forecast layout! Learn more

10-Day Weather Forecast

Advertisements
Track Severe Weather on mobile